Time;durP1;ratioP1;P1;durP2;ratioP2;P2;SDS_P1;SDS_P2;PMS_P1;PMS_P2;Temp;Humidity;BMP_temperature;BMP_pressure;BME280_temperature;BME280_humidity;BME280_pressure;Samples;Min_cycle;Max_cycle;Signal;HPM_P1;HPM_P2
2022/07/24 00:02:20;;;;;;;4.47;2.63;;;18.80;99.90;;;;;;4978699;28;20037;-72
2022/07/24 00:04:46;;;;;;;5.25;3.03;;;18.80;99.90;;;;;;4974198;28;20115;-72
2022/07/24 00:07:12;;;;;;;6.15;3.63;;;18.80;99.90;;;;;;4978869;28;20041;-71
2022/07/24 00:09:38;;;;;;;5.38;3.25;;;18.70;99.90;;;;;;4976402;28;20085;-72
2022/07/24 00:12:04;;;;;;;6.22;3.72;;;18.70;99.90;;;;;;4992222;28;20093;-72
2022/07/24 00:14:30;;;;;;;8.73;3.72;;;18.70;99.90;;;;;;4976654;28;20030;-72
2022/07/24 00:16:55;;;;;;;7.15;3.47;;;18.60;99.90;;;;;;4976599;28;20030;-73
2022/07/24 00:19:21;;;;;;;6.25;3.25;;;18.60;99.90;;;;;;4982534;28;20101;-73
2022/07/24 00:21:47;;;;;;;5.00;2.95;;;18.60;99.90;;;;;;4994562;28;20380;-73
2022/07/24 00:24:12;;;;;;;4.82;2.92;;;18.60;99.90;;;;;;4982236;28;20049;-73
2022/07/24 00:26:38;;;;;;;6.68;3.58;;;18.60;99.90;;;;;;4993461;28;20042;-72
2022/07/24 00:29:04;;;;;;;5.53;3.47;;;18.60;99.90;;;;;;5010393;28;20034;-73
2022/07/24 00:31:30;;;;;;;8.18;3.92;;;18.60;99.90;;;;;;5007815;28;20041;-72
2022/07/24 00:33:55;;;;;;;6.43;3.42;;;18.60;99.90;;;;;;5025178;28;20061;-71
2022/07/24 00:36:21;;;;;;;6.65;3.90;;;18.60;99.90;;;;;;5008556;28;20405;-73
2022/07/24 00:38:46;;;;;;;7.03;4.05;;;18.60;99.90;;;;;;5010567;28;20038;-73
2022/07/24 00:41:12;;;;;;;6.85;3.67;;;18.50;99.90;;;;;;5025042;28;20041;-72
2022/07/24 00:44:02;;;;;;;8.77;3.88;;;18.50;99.90;;;;;;5005844;28;20044;-71
2022/07/24 00:46:28;;;;;;;7.28;3.97;;;18.50;99.90;;;;;;5000546;28;20034;-70
2022/07/24 00:48:54;;;;;;;7.15;4.40;;;18.50;99.90;;;;;;4999700;28;20431;-71
2022/07/24 00:51:20;;;;;;;7.72;4.00;;;18.50;99.90;;;;;;4981389;28;20042;-72
2022/07/24 00:53:45;;;;;;;7.25;4.47;;;18.50;99.90;;;;;;4978539;28;20058;-73
2022/07/24 00:56:13;;;;;;;7.95;4.28;;;18.50;99.90;;;;;;4989108;28;20034;-72
2022/07/24 00:58:38;;;;;;;7.35;4.22;;;18.40;99.90;;;;;;4977839;28;20138;-72
2022/07/24 01:01:04;;;;;;;10.15;5.43;;;18.40;99.90;;;;;;4985285;28;20050;-72
2022/07/24 01:03:30;;;;;;;8.25;4.63;;;18.40;99.90;;;;;;5023809;28;20062;-72
2022/07/24 01:05:55;;;;;;;10.32;5.20;;;18.40;99.90;;;;;;5009518;28;20038;-72
2022/07/24 01:08:22;;;;;;;8.93;5.50;;;18.40;99.90;;;;;;5010081;28;20490;-73
2022/07/24 01:10:48;;;;;;;9.02;4.90;;;18.40;99.90;;;;;;5001387;28;20038;-72
2022/07/24 01:13:14;;;;;;;10.95;5.78;;;18.30;99.90;;;;;;4995287;28;20073;-72
2022/07/24 01:15:39;;;;;;;11.18;6.00;;;18.30;99.90;;;;;;5000621;28;20042;-72
2022/07/24 01:18:05;;;;;;;10.05;5.45;;;18.30;99.90;;;;;;4995992;28;20258;-70
2022/07/24 01:20:30;;;;;;;14.02;6.63;;;18.20;99.90;;;;;;4997373;28;20029;-73
2022/07/24 01:22:56;;;;;;;10.15;5.75;;;18.20;99.90;;;;;;4996693;28;20033;-71
2022/07/24 01:25:22;;;;;;;12.52;6.90;;;18.20;99.90;;;;;;4996569;28;20069;-73
2022/07/24 01:27:47;;;;;;;11.57;6.55;;;18.20;99.90;;;;;;4994994;28;20087;-72
2022/07/24 01:30:13;;;;;;;11.25;6.38;;;18.20;99.90;;;;;;5017156;28;20023;-72
2022/07/24 01:32:38;;;;;;;9.88;6.05;;;18.20;99.90;;;;;;4994860;28;20113;-72
2022/07/24 01:35:05;;;;;;;11.60;7.22;;;18.10;99.90;;;;;;4995070;28;20035;-73
2022/07/24 01:37:31;;;;;;;11.70;6.93;;;18.10;99.90;;;;;;5000445;28;20026;-72
2022/07/24 01:39:56;;;;;;;11.73;6.10;;;18.10;99.90;;;;;;4991809;28;20133;-72
2022/07/24 01:42:25;;;;;;;11.80;6.70;;;18.10;99.90;;;;;;4998096;28;20541;-71
2022/07/24 01:44:51;;;;;;;10.52;6.22;;;18.00;99.90;;;;;;4998219;28;20033;-73
2022/07/24 01:47:16;;;;;;;12.38;7.10;;;18.00;99.90;;;;;;4995816;28;20022;-72
2022/07/24 01:49:42;;;;;;;11.65;7.10;;;18.00;99.90;;;;;;4998322;28;20037;-72
2022/07/24 01:52:08;;;;;;;13.35;7.35;;;18.00;99.90;;;;;;4996458;28;20550;-72
2022/07/24 01:54:33;;;;;;;22.83;7.85;;;18.00;99.90;;;;;;5002766;28;20091;-72
2022/07/24 01:56:59;;;;;;;12.70;7.30;;;17.90;99.90;;;;;;4997872;28;20058;-72
2022/07/24 01:59:25;;;;;;;14.27;7.93;;;17.90;99.90;;;;;;4997953;28;20044;-70
2022/07/24 02:01:50;;;;;;;13.13;8.45;;;17.90;99.90;;;;;;5000281;28;20038;-71
2022/07/24 02:04:16;;;;;;;15.60;7.47;;;17.90;99.90;;;;;;4998189;28;20031;-72
2022/07/24 02:06:41;;;;;;;13.25;7.45;;;17.80;99.90;;;;;;5000333;28;20034;-72
2022/07/24 02:09:07;;;;;;;15.45;7.93;;;17.90;99.90;;;;;;4999315;28;20022;-72
2022/07/24 02:11:33;;;;;;;12.68;7.50;;;17.90;99.90;;;;;;4999320;28;20039;-72
2022/07/24 02:14:00;;;;;;;13.30;7.72;;;17.80;99.90;;;;;;4999781;28;20038;-72
2022/07/24 02:16:26;;;;;;;12.75;7.80;;;17.80;99.90;;;;;;4998050;28;20045;-71
2022/07/24 02:18:51;;;;;;;16.38;8.02;;;17.80;99.90;;;;;;5001041;28;20030;-73
2022/07/24 02:21:17;;;;;;;17.92;9.30;;;17.80;99.90;;;;;;5005517;28;20022;-73
2022/07/24 02:23:42;;;;;;;15.57;8.48;;;17.80;99.90;;;;;;4999814;28;20430;-72
2022/07/24 02:26:08;;;;;;;17.23;9.45;;;17.80;99.90;;;;;;5017295;28;20030;-72
2022/07/24 02:28:34;;;;;;;16.48;9.63;;;17.80;99.90;;;;;;4999586;28;20041;-72
2022/07/24 02:30:59;;;;;;;18.55;8.90;;;17.70;99.90;;;;;;4996908;28;20030;-73
2022/07/24 02:33:25;;;;;;;18.10;9.85;;;17.70;99.90;;;;;;4998009;28;20486;-70
2022/07/24 02:35:50;;;;;;;16.13;9.35;;;17.70;99.90;;;;;;4996814;28;20026;-72
2022/07/24 02:38:16;;;;;;;18.60;9.23;;;17.80;99.90;;;;;;5011004;28;20034;-73
2022/07/24 02:40:42;;;;;;;16.52;9.90;;;17.70;99.90;;;;;;4997818;28;20227;-72
2022/07/24 02:43:07;;;;;;;14.98;9.63;;;17.70;99.90;;;;;;4992823;28;20045;-72
2022/07/24 02:45:33;;;;;;;17.88;10.57;;;17.70;99.90;;;;;;4996713;28;20041;-72
2022/07/24 02:47:59;;;;;;;18.20;9.55;;;17.70;99.90;;;;;;5009105;28;20084;-72
2022/07/24 02:50:29;;;;;;;18.23;9.90;;;17.70;99.90;;;;;;4993677;28;20034;-72
2022/07/24 02:52:55;;;;;;;19.13;10.10;;;17.70;99.90;;;;;;4990625;28;20022;-73
2022/07/24 02:55:20;;;;;;;17.98;10.52;;;17.70;99.90;;;;;;4994708;28;20061;-72
2022/07/24 02:57:46;;;;;;;18.15;9.48;;;17.70;99.90;;;;;;4998066;28;20030;-72
2022/07/24 03:00:15;;;;;;;20.10;10.23;;;17.70;99.90;;;;;;4999769;28;20072;-72
2022/07/24 03:02:41;;;;;;;19.60;9.95;;;17.70;99.90;;;;;;4996991;28;20030;-72
2022/07/24 03:05:07;;;;;;;18.65;11.77;;;17.70;99.90;;;;;;4998852;28;20057;-71
2022/07/24 03:07:33;;;;;;;18.60;10.75;;;17.70;99.90;;;;;;4997382;28;20034;-73
2022/07/24 03:09:59;;;;;;;18.60;10.48;;;17.70;99.90;;;;;;4997245;28;20037;-72
2022/07/24 03:12:24;;;;;;;21.77;11.13;;;17.70;99.90;;;;;;4996489;28;20042;-71
2022/07/24 03:14:50;;;;;;;17.70;10.02;;;17.70;99.90;;;;;;4998844;28;20026;-72
2022/07/24 03:17:16;;;;;;;21.00;10.82;;;17.70;99.90;;;;;;4996771;28;20077;-72
2022/07/24 03:19:41;;;;;;;19.25;10.43;;;17.70;99.90;;;;;;4997444;28;20091;-70
2022/07/24 03:22:07;;;;;;;21.05;10.38;;;17.60;99.90;;;;;;4998062;28;20092;-72
2022/07/24 03:24:32;;;;;;;22.25;11.18;;;17.60;99.90;;;;;;5010921;28;20033;-72
2022/07/24 03:26:59;;;;;;;23.23;11.65;;;17.50;99.90;;;;;;4999604;28;20037;-72
2022/07/24 03:29:24;;;;;;;23.50;11.98;;;17.50;99.90;;;;;;4996823;28;20050;-73
2022/07/24 03:31:50;;;;;;;21.73;11.10;;;17.50;99.90;;;;;;4998465;28;20050;-72
2022/07/24 03:34:15;;;;;;;24.52;11.82;;;17.50;99.90;;;;;;4996612;28;20053;-72
2022/07/24 03:36:41;;;;;;;31.13;12.93;;;17.50;99.90;;;;;;5012218;28;20504;-72
2022/07/24 03:39:07;;;;;;;25.33;11.95;;;17.50;99.90;;;;;;4998271;28;20171;-73
2022/07/24 03:41:32;;;;;;;29.85;12.15;;;17.50;99.90;;;;;;5000272;28;20407;-73
2022/07/24 03:43:58;;;;;;;20.98;11.63;;;17.50;99.90;;;;;;4996735;28;20105;-73
2022/07/24 03:46:24;;;;;;;23.05;10.65;;;17.50;99.90;;;;;;5010817;28;20458;-72
2022/07/24 03:48:49;;;;;;;20.65;11.13;;;17.50;99.90;;;;;;4996506;28;20034;-72
2022/07/24 03:51:15;;;;;;;22.55;11.60;;;17.40;99.90;;;;;;4997119;28;20519;-72
2022/07/24 03:53:41;;;;;;;27.58;10.95;;;17.40;99.90;;;;;;4997975;28;20566;-71
2022/07/24 03:56:08;;;;;;;24.08;11.73;;;17.40;99.90;;;;;;5002911;28;20052;-71
2022/07/24 03:58:34;;;;;;;19.98;11.77;;;17.40;99.90;;;;;;4999803;28;20320;-72
2022/07/24 04:01:00;;;;;;;26.00;11.18;;;17.40;99.90;;;;;;5001358;28;20095;-73
2022/07/24 04:03:25;;;;;;;20.60;10.50;;;17.40;99.90;;;;;;4998096;28;20042;-71
2022/07/24 04:05:51;;;;;;;22.40;9.88;;;17.30;99.90;;;;;;5000466;28;20033;-72
2022/07/24 04:08:16;;;;;;;22.08;9.88;;;17.30;99.90;;;;;;4998858;28;20375;-72
2022/07/24 04:10:42;;;;;;;22.17;11.05;;;17.30;99.90;;;;;;5018413;28;20515;-72
2022/07/24 04:13:08;;;;;;;23.70;10.98;;;17.30;99.90;;;;;;5002092;28;20917;-73
2022/07/24 04:15:33;;;;;;;17.98;9.55;;;17.30;99.90;;;;;;4993705;28;20053;-72
2022/07/24 04:17:59;;;;;;;24.55;9.98;;;17.30;99.90;;;;;;4998225;28;20052;-72
2022/07/24 04:20:24;;;;;;;20.55;10.80;;;17.20;99.90;;;;;;4997165;28;20047;-73
2022/07/24 04:22:50;;;;;;;20.80;9.75;;;17.30;99.90;;;;;;4999258;28;20164;-72
2022/07/24 04:25:16;;;;;;;21.30;10.70;;;17.20;99.90;;;;;;5016618;28;20046;-72
2022/07/24 04:27:43;;;;;;;23.02;10.55;;;17.30;99.90;;;;;;4995544;28;20038;-73
2022/07/24 04:30:10;;;;;;;20.63;10.18;;;17.20;99.90;;;;;;4999348;28;20387;-73
2022/07/24 04:32:37;;;;;;;22.55;11.00;;;17.20;99.90;;;;;;4998240;28;20055;-72
2022/07/24 04:35:03;;;;;;;23.52;10.80;;;17.30;99.90;;;;;;5002807;28;20034;-71
2022/07/24 04:37:29;;;;;;;21.48;10.63;;;17.30;99.90;;;;;;4988450;28;20029;-72
2022/07/24 04:39:54;;;;;;;20.83;11.13;;;17.30;99.90;;;;;;4996117;28;20086;-72
2022/07/24 04:42:20;;;;;;;20.45;9.77;;;17.30;99.90;;;;;;4997804;28;20041;-72
2022/07/24 04:44:46;;;;;;;19.10;10.15;;;17.30;99.90;;;;;;4997120;28;20030;-72
2022/07/24 04:47:11;;;;;;;24.48;10.50;;;17.30;99.90;;;;;;5009267;28;20044;-73
2022/07/24 04:49:43;;;;;;;21.33;9.88;;;17.30;99.90;;;;;;4985120;28;20081;-72
2022/07/24 04:52:08;;;;;;;23.00;11.00;;;17.30;99.90;;;;;;4993370;28;20049;-72
2022/07/24 04:54:34;;;;;;;19.38;9.02;;;17.30;99.90;;;;;;5014178;28;20058;-72
2022/07/24 04:57:00;;;;;;;19.30;9.43;;;17.30;99.90;;;;;;4991145;28;20472;-72
2022/07/24 04:59:25;;;;;;;16.73;9.60;;;17.40;99.90;;;;;;4999519;28;20034;-71
2022/07/24 05:01:51;;;;;;;19.88;9.52;;;17.40;99.90;;;;;;4990964;28;20049;-73
2022/07/24 05:04:16;;;;;;;18.88;8.98;;;17.40;99.90;;;;;;4995323;28;20478;-73
2022/07/24 05:06:42;;;;;;;18.65;8.88;;;17.40;99.90;;;;;;5012064;28;20533;-72
2022/07/24 05:09:08;;;;;;;17.90;7.97;;;17.50;99.90;;;;;;4989758;28;20697;-73
2022/07/24 05:11:33;;;;;;;18.80;7.50;;;17.50;99.90;;;;;;4999253;28;20045;-73
2022/07/24 05:13:59;;;;;;;17.42;7.63;;;17.50;99.90;;;;;;4991178;28;20581;-72
2022/07/24 05:16:24;;;;;;;18.45;7.68;;;17.50;99.90;;;;;;4993078;28;20088;-73
2022/07/24 05:18:50;;;;;;;15.02;7.38;;;17.50;99.90;;;;;;4999145;28;20041;-72
2022/07/24 05:21:16;;;;;;;17.67;8.30;;;17.50;99.90;;;;;;4991999;28;20044;-72
2022/07/24 05:23:43;;;;;;;11.63;5.95;;;17.50;99.90;;;;;;4997272;28;20045;-70
2022/07/24 05:26:08;;;;;;;15.48;5.82;;;17.60;99.90;;;;;;4994428;28;20070;-72
2022/07/24 05:28:34;;;;;;;12.75;5.55;;;17.60;99.90;;;;;;4998341;28;20522;-72
2022/07/24 05:31:00;;;;;;;12.90;5.95;;;17.60;99.90;;;;;;4991143;28;20042;-72
2022/07/24 05:33:25;;;;;;;11.52;5.30;;;17.70;99.90;;;;;;4996255;28;20498;-70
2022/07/24 05:35:51;;;;;;;12.27;5.40;;;17.70;99.90;;;;;;4994226;28;20503;-73
2022/07/24 05:38:16;;;;;;;11.48;4.75;;;17.70;99.90;;;;;;5010975;28;20125;-72
2022/07/24 05:40:42;;;;;;;11.13;4.22;;;17.70;99.90;;;;;;4997153;28;20040;-73
2022/07/24 05:43:07;;;;;;;14.63;4.22;;;17.80;99.90;;;;;;4992923;28;20038;-71
2022/07/24 05:45:33;;;;;;;14.23;3.92;;;17.90;99.90;;;;;;4997908;28;20053;-72
2022/07/24 05:47:58;;;;;;;8.35;4.20;;;17.90;99.90;;;;;;4991947;28;20033;-72
2022/07/24 05:50:24;;;;;;;8.15;3.55;;;18.00;99.90;;;;;;4992270;28;20145;-73
2022/07/24 05:52:50;;;;;;;5.93;3.10;;;18.10;99.90;;;;;;4997505;28;20398;-72
2022/07/24 05:55:15;;;;;;;5.28;2.78;;;18.40;99.90;;;;;;4996604;28;20042;-72
2022/07/24 05:57:41;;;;;;;8.98;3.15;;;18.40;99.90;;;;;;4995412;28;20027;-72
2022/07/24 06:00:08;;;;;;;5.43;3.08;;;18.70;99.90;;;;;;4995862;28;20501;-75
2022/07/24 06:02:33;;;;;;;8.32;3.15;;;18.80;99.90;;;;;;5007840;28;20117;-75
2022/07/24 06:04:59;;;;;;;5.80;2.13;;;19.10;99.90;;;;;;4996342;28;20157;-73
2022/07/24 06:07:24;;;;;;;4.55;1.73;;;19.40;99.90;;;;;;4993042;28;20041;-76
2022/07/24 06:09:51;;;;;;;5.60;2.53;;;19.70;99.90;;;;;;4994417;28;20030;-75
2022/07/24 06:12:17;;;;;;;5.68;2.10;;;20.00;99.90;;;;;;4994214;28;20038;-76
2022/07/24 06:14:43;;;;;;;4.72;2.40;;;20.20;99.90;;;;;;4992679;28;20042;-75
2022/07/24 06:17:08;;;;;;;4.63;1.83;;;20.30;99.90;;;;;;4993745;28;20038;-75
2022/07/24 06:19:34;;;;;;;3.40;1.50;;;20.30;99.90;;;;;;5001017;28;20047;-76
2022/07/24 06:21:59;;;;;;;3.95;1.80;;;20.40;99.90;;;;;;4994905;28;20038;-75
2022/07/24 06:24:25;;;;;;;4.22;1.75;;;20.50;99.90;;;;;;4991450;28;20035;-72
2022/07/24 06:26:50;;;;;;;4.20;1.88;;;20.60;99.90;;;;;;5011074;28;20043;-76
2022/07/24 06:29:16;;;;;;;3.38;2.05;;;20.60;99.90;;;;;;4993598;28;20457;-75
2022/07/24 06:31:42;;;;;;;3.10;1.90;;;20.70;99.90;;;;;;4993798;28;20064;-75
2022/07/24 06:34:07;;;;;;;10.13;1.85;;;20.80;99.90;;;;;;5005574;28;20113;-76
2022/07/24 06:36:33;;;;;;;3.53;2.00;;;21.00;99.90;;;;;;4993958;28;20386;-74
2022/07/24 06:38:58;;;;;;;2.67;1.50;;;21.10;99.90;;;;;;4992014;28;20040;-73
2022/07/24 06:41:24;;;;;;;3.00;1.70;;;21.20;99.90;;;;;;4995071;28;20096;-73
2022/07/24 06:43:49;;;;;;;2.50;1.50;;;21.40;99.90;;;;;;4997542;28;20041;-73
2022/07/24 06:46:15;;;;;;;3.83;1.58;;;21.70;99.90;;;;;;4996457;28;20455;-73
2022/07/24 06:48:40;;;;;;;2.72;1.52;;;22.10;99.90;;;;;;4989600;28;20061;-73
2022/07/24 06:51:06;;;;;;;3.38;1.48;;;22.40;99.90;;;;;;4988371;28;20042;-73
2022/07/24 06:53:32;;;;;;;4.18;1.42;;;22.90;99.90;;;;;;5003419;28;20064;-73
2022/07/24 06:55:57;;;;;;;2.40;1.10;;;23.30;99.90;;;;;;5006292;28;20375;-74
2022/07/24 06:58:23;;;;;;;2.00;1.17;;;23.70;99.90;;;;;;4999173;28;20026;-73
2022/07/24 07:00:49;;;;;;;8.40;1.50;;;24.00;99.90;;;;;;4989953;28;20378;-74
2022/07/24 07:03:15;;;;;;;2.88;1.23;;;24.40;99.90;;;;;;4999725;28;20026;-72
2022/07/24 07:05:41;;;;;;;3.83;1.40;;;24.90;99.90;;;;;;4996611;28;20033;-72
2022/07/24 07:08:06;;;;;;;2.95;1.00;;;25.10;99.90;;;;;;4999196;28;20475;-72
2022/07/24 07:10:32;;;;;;;2.38;1.00;;;25.40;99.90;;;;;;4998453;28;20113;-73
2022/07/24 07:12:57;;;;;;;2.05;1.27;;;25.50;99.90;;;;;;4998043;28;20026;-76
2022/07/24 07:15:23;;;;;;;2.40;1.10;;;25.40;99.90;;;;;;4998934;28;20091;-76
2022/07/24 07:17:49;;;;;;;2.95;1.80;;;25.40;99.90;;;;;;4997777;28;20496;-75
2022/07/24 07:20:14;;;;;;;2.40;1.30;;;25.60;99.90;;;;;;4997385;28;20042;-76
2022/07/24 07:22:41;;;;;;;3.00;1.50;;;26.00;99.90;;;;;;4996581;28;20026;-76
2022/07/24 07:25:07;;;;;;;3.35;1.63;;;26.60;99.90;;;;;;4997247;28;20580;-73
2022/07/24 07:27:33;;;;;;;4.75;2.05;;;26.50;99.70;;;;;;5001115;28;20028;-75
2022/07/24 07:29:58;;;;;;;5.53;2.30;;;26.20;99.40;;;;;;4996532;28;20386;-76
2022/07/24 07:32:24;;;;;;;3.72;1.60;;;26.00;99.90;;;;;;4995898;28;20483;-75
2022/07/24 07:34:50;;;;;;;5.60;1.83;;;25.80;99.90;;;;;;4995607;28;20151;-75
2022/07/24 07:37:16;;;;;;;3.17;1.63;;;25.80;99.90;;;;;;4982325;28;20080;-75
2022/07/24 07:39:41;;;;;;;7.07;2.25;;;25.90;99.90;;;;;;4988770;28;20066;-75
2022/07/24 07:42:07;;;;;;;7.90;2.35;;;26.00;99.70;;;;;;4991960;28;20042;-76
2022/07/24 07:44:33;;;;;;;2.15;1.40;;;26.20;99.40;;;;;;4985206;28;20762;-75
2022/07/24 07:46:58;;;;;;;2.50;1.38;;;26.00;98.90;;;;;;4992182;28;20046;-75
2022/07/24 07:49:24;;;;;;;4.03;2.10;;;25.70;99.20;;;;;;4996023;28;20034;-76
2022/07/24 07:51:51;;;;;;;6.03;1.58;;;25.60;99.30;;;;;;4996102;28;20044;-76
2022/07/24 07:54:17;;;;;;;3.10;1.35;;;25.50;99.90;;;;;;4994613;28;20037;-76
2022/07/24 07:56:43;;;;;;;2.65;1.48;;;25.50;99.60;;;;;;4997148;28;20065;-74
2022/07/24 07:59:09;;;;;;;3.38;1.40;;;25.60;99.80;;;;;;4995373;28;20062;-75
2022/07/24 08:01:34;;;;;;;2.88;1.30;;;25.90;99.80;;;;;;4997807;28;20049;-75
2022/07/24 08:04:00;;;;;;;4.55;1.50;;;26.50;98.80;;;;;;4996264;28;20029;-76
2022/07/24 08:06:26;;;;;;;2.28;1.02;;;26.70;98.50;;;;;;4997644;28;20487;-75
2022/07/24 08:08:52;;;;;;;2.03;0.98;;;26.80;98.10;;;;;;4997509;28;20165;-75
2022/07/24 08:11:18;;;;;;;2.38;1.10;;;26.80;98.00;;;;;;4997932;28;20522;-75
2022/07/24 08:13:43;;;;;;;2.50;0.65;;;26.90;96.30;;;;;;4995411;28;20053;-75
2022/07/24 08:16:09;;;;;;;1.33;1.05;;;26.70;96.30;;;;;;4996337;28;20034;-76
2022/07/24 08:18:34;;;;;;;1.30;0.70;;;26.50;96.00;;;;;;4997426;28;20030;-75
2022/07/24 08:21:00;;;;;;;3.42;1.30;;;26.40;96.50;;;;;;4997006;28;20041;-75
2022/07/24 08:23:25;;;;;;;2.58;1.20;;;26.40;96.60;;;;;;4993633;28;20056;-72
2022/07/24 08:25:51;;;;;;;2.15;1.00;;;26.30;97.00;;;;;;4994407;28;20558;-72
2022/07/24 08:28:17;;;;;;;1.85;1.08;;;26.20;97.10;;;;;;4995434;28;20400;-75
2022/07/24 08:30:43;;;;;;;2.58;1.23;;;26.10;96.50;;;;;;4995829;28;20037;-74
2022/07/24 08:33:09;;;;;;;2.35;1.20;;;26.10;96.00;;;;;;4991254;28;20407;-76
2022/07/24 08:35:34;;;;;;;3.75;1.00;;;25.90;96.70;;;;;;4982622;28;20109;-74
2022/07/24 08:38:00;;;;;;;2.40;1.20;;;25.80;96.30;;;;;;4996182;28;20436;-73
2022/07/24 08:40:32;;;;;;;2.15;0.98;;;25.80;96.40;;;;;;4999577;28;20046;-73
2022/07/24 08:42:58;;;;;;;1.08;0.77;;;25.70;97.00;;;;;;4995200;28;20031;-74
2022/07/24 08:45:23;;;;;;;3.30;1.08;;;25.70;96.70;;;;;;5000587;28;20116;-73
2022/07/24 08:47:51;;;;;;;3.50;1.10;;;25.70;96.60;;;;;;5001034;28;20041;-74
2022/07/24 08:50:17;;;;;;;3.72;1.00;;;25.80;97.00;;;;;;4984597;28;20154;-75
2022/07/24 08:52:43;;;;;;;3.10;0.82;;;25.80;96.90;;;;;;4988026;28;20503;-74
2022/07/24 08:55:09;;;;;;;3.35;1.08;;;25.90;96.50;;;;;;4994416;28;20037;-75
2022/07/24 08:57:34;;;;;;;1.75;0.88;;;25.90;96.50;;;;;;4995393;28;20046;-74
2022/07/24 09:00:00;;;;;;;1.45;0.65;;;26.00;96.50;;;;;;4998892;28;20030;-74
2022/07/24 09:02:27;;;;;;;1.20;0.80;;;26.10;96.50;;;;;;4996086;28;20030;-73
2022/07/24 09:04:58;;;;;;;3.03;0.93;;;26.10;96.30;;;;;;4997360;28;20030;-75
2022/07/24 09:07:28;;;;;;;6.55;1.40;;;26.30;95.90;;;;;;4991909;28;20045;-75
2022/07/24 09:10:12;;;;;;;2.03;0.65;;;26.30;95.90;;;;;;4998528;28;20034;-75
2022/07/24 09:12:41;;;;;;;2.70;1.35;;;26.30;96.10;;;;;;4993808;28;20142;-75
2022/07/24 09:15:23;;;;;;;1.55;0.73;;;26.40;96.10;;;;;;4997020;28;20036;-74
2022/07/24 09:17:53;;;;;;;1.73;0.82;;;26.40;96.40;;;;;;4994592;28;20041;-75
2022/07/24 09:20:20;;;;;;;2.60;0.77;;;26.40;95.30;;;;;;4992862;28;20406;-75
2022/07/24 09:22:46;;;;;;;2.53;1.15;;;26.50;95.60;;;;;;4980844;28;20534;-75
2022/07/24 09:25:21;;;;;;;1.58;0.85;;;26.60;95.30;;;;;;4996163;28;20031;-74
2022/07/24 09:27:50;;;;;;;2.78;1.33;;;26.60;95.80;;;;;;4990501;28;20077;-75
2022/07/24 09:30:31;;;;;;;4.18;0.90;;;26.60;95.90;;;;;;4992994;28;20845;-75
2022/07/24 09:33:02;;;;;;;3.55;1.08;;;26.70;95.50;;;;;;4989134;28;20100;-73
2022/07/24 09:35:43;;;;;;;4.00;1.00;;;26.70;95.40;;;;;;4995578;28;20566;-75
2022/07/24 09:38:10;;;;;;;2.40;1.00;;;26.80;95.20;;;;;;4993841;28;20044;-74
2022/07/24 09:40:39;;;;;;;1.95;0.73;;;26.80;94.70;;;;;;4995122;28;20125;-75
2022/07/24 09:43:13;;;;;;;3.30;1.25;;;26.80;94.90;;;;;;4993490;28;20019;-75
2022/07/24 09:46:02;;;;;;;2.08;0.80;;;26.80;94.60;;;;;;5013569;28;20034;-75
2022/07/24 09:48:30;;;;;;;3.25;1.38;;;26.90;95.60;;;;;;4991156;28;20055;-75
2022/07/24 09:50:58;;;;;;;3.08;0.88;;;27.00;94.40;;;;;;4997218;28;20490;-75
2022/07/24 09:53:30;;;;;;;2.45;1.13;;;27.00;94.70;;;;;;4992274;28;20495;-75
2022/07/24 09:56:00;;;;;;;1.52;0.70;;;27.00;94.40;;;;;;4997517;28;20038;-74
2022/07/24 09:58:26;;;;;;;2.40;0.93;;;27.00;94.70;;;;;;4992483;28;20965;-72
2022/07/24 10:00:56;;;;;;;1.95;0.60;;;27.10;94.40;;;;;;4996126;28;20403;-74
2022/07/24 10:03:25;;;;;;;1.30;0.95;;;27.30;94.30;;;;;;4995616;28;20124;-74
2022/07/24 10:05:56;;;;;;;2.35;0.90;;;27.50;94.90;;;;;;4995919;28;20034;-75
2022/07/24 10:08:21;;;;;;;1.60;0.85;;;27.60;94.40;;;;;;4996716;28;20030;-74
2022/07/24 10:10:49;;;;;;;2.85;0.60;;;27.80;93.50;;;;;;4994090;28;20377;-74
2022/07/24 10:13:16;;;;;;;2.88;0.80;;;27.90;93.80;;;;;;4997533;28;20030;-75
2022/07/24 10:16:09;;;;;;;0.80;0.63;;;27.90;93.60;;;;;;4993084;28;20097;-75
2022/07/24 10:18:46;;;;;;;2.85;0.70;;;28.00;93.50;;;;;;4991557;28;20039;-75
2022/07/24 10:21:24;;;;;;;5.45;0.63;;;28.00;93.00;;;;;;4993206;28;20096;-74
2022/07/24 10:24:12;;;;;;;2.38;0.88;;;28.00;92.80;;;;;;4998110;28;20022;-75
2022/07/24 10:26:37;;;;;;;3.78;1.25;;;28.00;92.60;;;;;;5001585;28;20042;-72
2022/07/24 10:29:23;;;;;;;2.47;0.60;;;28.00;92.80;;;;;;4996462;28;20106;-72
2022/07/24 10:31:50;;;;;;;1.55;0.90;;;28.00;93.00;;;;;;4994289;28;20030;-71
2022/07/24 10:34:43;;;;;;;1.92;0.70;;;28.10;93.40;;;;;;4993951;28;20031;-72
2022/07/24 10:37:31;;;;;;;1.05;0.55;;;28.20;93.00;;;;;;4986615;28;20399;-72
2022/07/24 10:40:14;;;;;;;1.70;0.63;;;28.30;92.70;;;;;;4991077;28;20034;-75
2022/07/24 10:43:04;;;;;;;1.23;0.60;;;28.30;91.70;;;;;;4997523;28;20042;-74
2022/07/24 10:45:30;;;;;;;;;;;28.30;91.70;;;;;;4987056;28;20126;-75
2022/07/24 10:47:57;;;;;;;2.05;1.17;;;28.20;92.50;;;;;;4987372;28;19921;-75
2022/07/24 10:50:23;;;;;;;1.98;1.02;;;28.30;92.20;;;;;;4986113;28;20038;-74
2022/07/24 10:52:49;;;;;;;2.50;0.70;;;28.30;91.70;;;;;;4986160;28;20038;-74
2022/07/24 10:55:42;;;;;;;1.42;0.68;;;28.30;91.90;;;;;;4986770;28;20042;-75
2022/07/24 10:58:12;;;;;;;2.78;0.73;;;28.30;92.30;;;;;;4984773;28;20033;-75
2022/07/24 11:00:42;;;;;;;1.40;0.70;;;28.30;91.50;;;;;;4995657;28;20045;-75
2022/07/24 11:03:17;;;;;;;1.63;0.88;;;28.40;91.90;;;;;;4986200;28;20037;-75
2022/07/24 11:06:01;;;;;;;0.95;0.70;;;28.50;92.10;;;;;;4997518;28;20418;-74
2022/07/24 11:08:31;;;;;;;0.77;0.40;;;28.50;92.20;;;;;;4995621;28;20121;-75
2022/07/24 11:11:00;;;;;;;1.33;0.75;;;28.70;91.50;;;;;;5011081;28;20030;-73
2022/07/24 11:13:31;;;;;;;1.67;0.70;;;28.70;90.90;;;;;;4992334;28;20057;-72
2022/07/24 11:16:15;;;;;;;1.13;0.68;;;28.70;91.20;;;;;;4997428;28;20030;-74
2022/07/24 11:18:49;;;;;;;1.33;0.70;;;28.70;91.10;;;;;;4987174;28;20116;-74
2022/07/24 11:21:30;;;;;;;1.38;0.80;;;28.70;90.60;;;;;;4998649;28;20038;-75
2022/07/24 11:24:17;;;;;;;1.33;0.45;;;28.80;90.70;;;;;;4992931;28;20045;-75
2022/07/24 11:26:57;;;;;;;2.28;0.70;;;28.80;90.90;;;;;;5001318;28;20049;-74
2022/07/24 11:29:32;;;;;;;1.70;0.63;;;28.80;91.50;;;;;;4979966;28;20034;-75
2022/07/24 11:31:57;;;;;;;1.85;0.60;;;28.80;90.90;;;;;;4975924;28;20048;-74
2022/07/24 11:34:25;;;;;;;1.92;0.57;;;28.80;90.10;;;;;;4976035;28;20039;-75
2022/07/24 11:36:55;;;;;;;1.48;0.70;;;28.80;89.50;;;;;;4993485;28;20037;-74
2022/07/24 11:39:30;;;;;;;4.50;0.45;;;28.80;90.00;;;;;;4989342;28;20089;-74
2022/07/24 11:42:23;;;;;;;3.88;0.88;;;28.80;90.30;;;;;;4994520;28;20042;-75
2022/07/24 11:44:50;;;;;;;2.35;0.68;;;28.90;90.30;;;;;;4973028;28;20034;-74
2022/07/24 11:47:18;;;;;;;1.77;0.50;;;28.80;89.70;;;;;;4976428;28;20035;-74
2022/07/24 11:50:04;;;;;;;2.17;0.50;;;28.80;90.50;;;;;;4974757;28;20130;-74
2022/07/24 11:52:32;;;;;;;1.10;0.50;;;28.80;90.60;;;;;;4974986;28;20096;-75
2022/07/24 11:55:00;;;;;;;2.03;0.82;;;28.90;91.20;;;;;;4980905;28;20035;-74
2022/07/24 11:57:28;;;;;;;1.45;0.52;;;28.90;90.70;;;;;;4985564;28;20042;-74
2022/07/24 11:59:54;;;;;;;0.50;0.47;;;29.00;90.80;;;;;;4991439;28;20046;-75
2022/07/24 12:02:21;;;;;;;2.40;0.60;;;28.90;90.70;;;;;;4992637;28;20038;-75
2022/07/24 12:04:48;;;;;;;2.35;0.70;;;29.00;90.10;;;;;;4989504;28;20042;-74
2022/07/24 12:07:16;;;;;;;1.08;0.40;;;29.00;89.40;;;;;;4994433;28;20026;-75
2022/07/24 12:09:51;;;;;;;6.25;0.82;;;29.00;90.00;;;;;;4987538;28;20031;-73
2022/07/24 12:12:21;;;;;;;1.85;0.43;;;29.00;89.40;;;;;;4987117;28;20111;-74
2022/07/24 12:14:48;;;;;;;1.35;0.73;;;29.00;90.10;;;;;;4995243;28;20033;-74
2022/07/24 12:17:14;;;;;;;1.98;0.93;;;28.90;89.50;;;;;;4993728;28;20435;-74
2022/07/24 12:19:39;;;;;;;5.35;0.70;;;28.90;88.80;;;;;;4997428;28;20108;-75
2022/07/24 12:22:05;;;;;;;2.35;1.00;;;28.90;89.80;;;;;;4994475;28;20064;-73
2022/07/24 12:24:32;;;;;;;1.05;0.65;;;28.80;90.40;;;;;;4989184;28;20031;-75
2022/07/24 12:26:59;;;;;;;3.30;0.47;;;28.80;90.20;;;;;;4995456;28;20034;-72
2022/07/24 12:29:27;;;;;;;0.82;0.35;;;28.70;90.00;;;;;;4995241;28;20030;-75
2022/07/24 12:32:13;;;;;;;0.68;0.30;;;28.70;90.20;;;;;;4994235;28;20026;-75
2022/07/24 12:34:43;;;;;;;3.85;1.00;;;28.70;90.20;;;;;;4987495;28;20034;-73
2022/07/24 12:37:15;;;;;;;1.55;0.52;;;28.60;90.60;;;;;;4994887;28;20077;-74
2022/07/24 12:39:52;;;;;;;1.67;0.90;;;28.60;91.00;;;;;;5012576;28;20041;-75
2022/07/24 12:42:39;;;;;;;1.30;0.77;;;28.60;91.10;;;;;;4990232;28;20031;-75
2022/07/24 12:45:09;;;;;;;2.65;0.77;;;28.70;90.70;;;;;;4986456;28;20516;-75
2022/07/24 12:47:55;;;;;;;1.45;0.90;;;28.70;91.10;;;;;;5007272;28;20411;-75